sensor_id;sensor_type;location;lat;lon;timestamp;P1;durP1;ratioP1;P2;durP2;ratioP2
15293;SDS011;7748;52.474;13.454;2022-09-12T00:01:33;3.10;;;2.60;;
15293;SDS011;7748;52.474;13.454;2022-09-12T00:04:01;3.70;;;3.23;;
15293;SDS011;7748;52.474;13.454;2022-09-12T00:06:29;3.50;;;3.20;;
15293;SDS011;7748;52.474;13.454;2022-09-12T00:08:59;4.30;;;3.40;;
15293;SDS011;7748;52.474;13.454;2022-09-12T00:11:29;5.20;;;2.80;;
15293;SDS011;7748;52.474;13.454;2022-09-12T00:13:57;3.87;;;3.20;;
15293;SDS011;7748;52.474;13.454;2022-09-12T00:16:27;7.53;;;3.23;;
15293;SDS011;7748;52.474;13.454;2022-09-12T00:18:58;3.90;;;2.87;;
15293;SDS011;7748;52.474;13.454;2022-09-12T00:21:26;2.80;;;2.60;;
15293;SDS011;7748;52.474;13.454;2022-09-12T00:23:54;3.53;;;3.10;;
15293;SDS011;7748;52.474;13.454;2022-09-12T00:26:22;3.60;;;2.90;;
15293;SDS011;7748;52.474;13.454;2022-09-12T00:28:50;6.80;;;5.33;;
15293;SDS011;7748;52.474;13.454;2022-09-12T00:31:20;4.33;;;3.20;;
15293;SDS011;7748;52.474;13.454;2022-09-12T00:33:50;3.47;;;2.80;;
15293;SDS011;7748;52.474;13.454;2022-09-12T00:36:20;4.27;;;3.53;;
15293;SDS011;7748;52.474;13.454;2022-09-12T00:38:50;5.83;;;3.63;;
15293;SDS011;7748;52.474;13.454;2022-09-12T00:41:20;4.07;;;2.87;;
15293;SDS011;7748;52.474;13.454;2022-09-12T00:43:51;3.30;;;2.70;;
15293;SDS011;7748;52.474;13.454;2022-09-12T00:46:25;3.40;;;2.97;;
15293;SDS011;7748;52.474;13.454;2022-09-12T00:48:57;3.40;;;3.07;;
15293;SDS011;7748;52.474;13.454;2022-09-12T00:51:30;2.87;;;2.63;;
15293;SDS011;7748;52.474;13.454;2022-09-12T00:54:01;5.03;;;2.87;;
15293;SDS011;7748;52.474;13.454;2022-09-12T00:56:31;3.20;;;2.47;;
15293;SDS011;7748;52.474;13.454;2022-09-12T00:59:01;5.43;;;2.73;;
15293;SDS011;7748;52.474;13.454;2022-09-12T01:01:33;3.80;;;2.80;;
15293;SDS011;7748;52.474;13.454;2022-09-12T01:04:02;3.10;;;2.80;;
15293;SDS011;7748;52.474;13.454;2022-09-12T01:06:33;3.33;;;2.73;;
15293;SDS011;7748;52.474;13.454;2022-09-12T01:09:03;3.57;;;3.20;;
15293;SDS011;7748;52.474;13.454;2022-09-12T01:11:31;3.50;;;3.20;;
15293;SDS011;7748;52.474;13.454;2022-09-12T01:14:03;3.30;;;3.00;;
15293;SDS011;7748;52.474;13.454;2022-09-12T01:16:31;4.00;;;2.80;;
15293;SDS011;7748;52.474;13.454;2022-09-12T01:19:04;6.00;;;3.10;;
15293;SDS011;7748;52.474;13.454;2022-09-12T01:21:55;4.43;;;2.97;;
15293;SDS011;7748;52.474;13.454;2022-09-12T01:24:53;4.73;;;2.80;;
15293;SDS011;7748;52.474;13.454;2022-09-12T01:27:38;3.97;;;3.07;;
15293;SDS011;7748;52.474;13.454;2022-09-12T01:30:23;3.40;;;3.10;;
15293;SDS011;7748;52.474;13.454;2022-09-12T01:33:07;4.43;;;3.10;;
15293;SDS011;7748;52.474;13.454;2022-09-12T01:35:45;3.40;;;2.97;;
15293;SDS011;7748;52.474;13.454;2022-09-12T01:38:23;5.13;;;3.00;;
15293;SDS011;7748;52.474;13.454;2022-09-12T01:40:57;3.47;;;3.00;;
15293;SDS011;7748;52.474;13.454;2022-09-12T01:43:30;3.37;;;3.03;;
15293;SDS011;7748;52.474;13.454;2022-09-12T01:46:05;3.53;;;2.80;;
15293;SDS011;7748;52.474;13.454;2022-09-12T01:48:38;3.23;;;2.80;;
15293;SDS011;7748;52.474;13.454;2022-09-12T01:51:12;3.70;;;2.80;;
15293;SDS011;7748;52.474;13.454;2022-09-12T01:53:45;3.77;;;3.30;;
15293;SDS011;7748;52.474;13.454;2022-09-12T01:56:17;3.70;;;3.10;;
15293;SDS011;7748;52.474;13.454;2022-09-12T01:58:51;6.70;;;3.23;;
15293;SDS011;7748;52.474;13.454;2022-09-12T02:01:25;4.13;;;3.73;;
15293;SDS011;7748;52.474;13.454;2022-09-12T02:03:56;3.80;;;3.40;;
15293;SDS011;7748;52.474;13.454;2022-09-12T02:06:35;3.77;;;3.20;;
15293;SDS011;7748;52.474;13.454;2022-09-12T02:09:07;6.30;;;3.40;;
15293;SDS011;7748;52.474;13.454;2022-09-12T02:11:40;5.63;;;3.20;;
15293;SDS011;7748;52.474;13.454;2022-09-12T02:14:11;4.80;;;3.00;;
15293;SDS011;7748;52.474;13.454;2022-09-12T02:16:46;3.87;;;3.07;;
15293;SDS011;7748;52.474;13.454;2022-09-12T02:19:18;4.13;;;3.37;;
15293;SDS011;7748;52.474;13.454;2022-09-12T02:21:51;4.80;;;3.37;;
15293;SDS011;7748;52.474;13.454;2022-09-12T02:24:22;6.50;;;3.77;;
15293;SDS011;7748;52.474;13.454;2022-09-12T02:26:56;7.93;;;3.30;;
15293;SDS011;7748;52.474;13.454;2022-09-12T02:29:27;7.27;;;3.70;;
15293;SDS011;7748;52.474;13.454;2022-09-12T02:31:57;7.60;;;3.47;;
15293;SDS011;7748;52.474;13.454;2022-09-12T02:34:31;6.30;;;3.53;;
15293;SDS011;7748;52.474;13.454;2022-09-12T02:37:06;4.87;;;3.47;;
15293;SDS011;7748;52.474;13.454;2022-09-12T02:39:44;6.90;;;3.60;;
15293;SDS011;7748;52.474;13.454;2022-09-12T02:42:12;5.43;;;3.30;;
15293;SDS011;7748;52.474;13.454;2022-09-12T02:44:40;5.50;;;3.83;;
15293;SDS011;7748;52.474;13.454;2022-09-12T02:47:11;6.40;;;3.30;;
15293;SDS011;7748;52.474;13.454;2022-09-12T02:49:43;5.73;;;3.33;;
15293;SDS011;7748;52.474;13.454;2022-09-12T02:52:11;6.43;;;3.20;;
15293;SDS011;7748;52.474;13.454;2022-09-12T02:54:39;8.03;;;4.00;;
15293;SDS011;7748;52.474;13.454;2022-09-12T02:57:13;5.63;;;3.70;;
15293;SDS011;7748;52.474;13.454;2022-09-12T02:59:48;7.93;;;4.73;;
15293;SDS011;7748;52.474;13.454;2022-09-12T03:02:27;4.50;;;3.33;;
15293;SDS011;7748;52.474;13.454;2022-09-12T03:05:15;6.37;;;3.77;;
15293;SDS011;7748;52.474;13.454;2022-09-12T03:07:55;6.90;;;3.80;;
15293;SDS011;7748;52.474;13.454;2022-09-12T03:10:40;5.10;;;3.13;;
15293;SDS011;7748;52.474;13.454;2022-09-12T03:13:19;7.63;;;4.10;;
15293;SDS011;7748;52.474;13.454;2022-09-12T03:15:55;7.57;;;4.47;;
15293;SDS011;7748;52.474;13.454;2022-09-12T03:18:37;5.43;;;4.00;;
15293;SDS011;7748;52.474;13.454;2022-09-12T03:21:16;4.37;;;3.40;;
15293;SDS011;7748;52.474;13.454;2022-09-12T03:23:50;5.50;;;3.50;;
15293;SDS011;7748;52.474;13.454;2022-09-12T03:26:31;6.47;;;4.10;;
15293;SDS011;7748;52.474;13.454;2022-09-12T03:29:04;5.60;;;3.70;;
15293;SDS011;7748;52.474;13.454;2022-09-12T03:31:34;7.03;;;5.30;;
15293;SDS011;7748;52.474;13.454;2022-09-12T03:34:03;8.03;;;4.50;;
15293;SDS011;7748;52.474;13.454;2022-09-12T03:36:31;6.43;;;4.40;;
15293;SDS011;7748;52.474;13.454;2022-09-12T03:38:59;8.10;;;4.20;;
15293;SDS011;7748;52.474;13.454;2022-09-12T03:41:27;6.67;;;4.20;;
15293;SDS011;7748;52.474;13.454;2022-09-12T03:43:54;4.77;;;4.10;;
15293;SDS011;7748;52.474;13.454;2022-09-12T03:46:23;5.77;;;4.80;;
15293;SDS011;7748;52.474;13.454;2022-09-12T03:48:50;6.40;;;4.53;;
15293;SDS011;7748;52.474;13.454;2022-09-12T03:51:19;4.93;;;4.33;;
15293;SDS011;7748;52.474;13.454;2022-09-12T03:53:47;6.00;;;4.13;;
15293;SDS011;7748;52.474;13.454;2022-09-12T03:56:15;7.60;;;5.10;;
15293;SDS011;7748;52.474;13.454;2022-09-12T03:58:43;5.77;;;4.33;;
15293;SDS011;7748;52.474;13.454;2022-09-12T04:01:11;4.57;;;4.10;;
15293;SDS011;7748;52.474;13.454;2022-09-12T04:03:40;6.17;;;4.70;;
15293;SDS011;7748;52.474;13.454;2022-09-12T04:06:09;5.23;;;4.00;;
15293;SDS011;7748;52.474;13.454;2022-09-12T04:08:40;7.70;;;4.90;;
15293;SDS011;7748;52.474;13.454;2022-09-12T04:11:10;7.17;;;4.57;;
15293;SDS011;7748;52.474;13.454;2022-09-12T04:13:40;5.10;;;4.23;;
15293;SDS011;7748;52.474;13.454;2022-09-12T04:16:09;6.43;;;4.57;;
15293;SDS011;7748;52.474;13.454;2022-09-12T04:18:40;5.67;;;5.03;;
15293;SDS011;7748;52.474;13.454;2022-09-12T04:21:12;6.90;;;4.40;;
15293;SDS011;7748;52.474;13.454;2022-09-12T04:23:43;5.87;;;4.37;;
15293;SDS011;7748;52.474;13.454;2022-09-12T04:26:11;8.97;;;4.53;;
15293;SDS011;7748;52.474;13.454;2022-09-12T04:28:39;11.20;;;4.70;;
15293;SDS011;7748;52.474;13.454;2022-09-12T04:31:08;5.30;;;4.47;;
15293;SDS011;7748;52.474;13.454;2022-09-12T04:33:40;7.60;;;4.77;;
15293;SDS011;7748;52.474;13.454;2022-09-12T04:36:09;5.63;;;4.57;;
15293;SDS011;7748;52.474;13.454;2022-09-12T04:38:39;5.07;;;4.50;;
15293;SDS011;7748;52.474;13.454;2022-09-12T04:41:11;7.23;;;5.10;;
15293;SDS011;7748;52.474;13.454;2022-09-12T04:43:40;9.07;;;5.10;;
15293;SDS011;7748;52.474;13.454;2022-09-12T04:46:09;6.50;;;4.67;;
15293;SDS011;7748;52.474;13.454;2022-09-12T04:48:37;7.87;;;4.47;;
15293;SDS011;7748;52.474;13.454;2022-09-12T04:51:06;6.23;;;5.20;;
15293;SDS011;7748;52.474;13.454;2022-09-12T04:53:37;6.83;;;5.47;;
15293;SDS011;7748;52.474;13.454;2022-09-12T04:56:06;7.07;;;5.47;;
15293;SDS011;7748;52.474;13.454;2022-09-12T04:58:36;7.87;;;5.30;;
15293;SDS011;7748;52.474;13.454;2022-09-12T05:01:05;7.23;;;5.40;;
15293;SDS011;7748;52.474;13.454;2022-09-12T05:03:34;7.00;;;5.03;;
15293;SDS011;7748;52.474;13.454;2022-09-12T05:06:10;11.73;;;7.40;;
15293;SDS011;7748;52.474;13.454;2022-09-12T05:08:38;7.40;;;4.90;;
15293;SDS011;7748;52.474;13.454;2022-09-12T05:11:08;5.77;;;5.20;;
15293;SDS011;7748;52.474;13.454;2022-09-12T05:13:39;7.43;;;5.07;;
15293;SDS011;7748;52.474;13.454;2022-09-12T05:16:08;7.43;;;5.70;;
15293;SDS011;7748;52.474;13.454;2022-09-12T05:18:37;8.27;;;6.10;;
15293;SDS011;7748;52.474;13.454;2022-09-12T05:21:06;7.27;;;5.03;;
15293;SDS011;7748;52.474;13.454;2022-09-12T05:23:35;7.10;;;5.37;;
15293;SDS011;7748;52.474;13.454;2022-09-12T05:26:03;5.67;;;5.07;;
15293;SDS011;7748;52.474;13.454;2022-09-12T05:28:33;8.63;;;5.07;;
15293;SDS011;7748;52.474;13.454;2022-09-12T05:31:04;7.67;;;5.47;;
15293;SDS011;7748;52.474;13.454;2022-09-12T05:33:34;6.73;;;5.40;;
15293;SDS011;7748;52.474;13.454;2022-09-12T05:36:04;8.50;;;5.50;;
15293;SDS011;7748;52.474;13.454;2022-09-12T05:38:33;6.63;;;5.47;;
15293;SDS011;7748;52.474;13.454;2022-09-12T05:41:03;10.40;;;5.60;;
15293;SDS011;7748;52.474;13.454;2022-09-12T05:43:32;8.53;;;5.07;;
15293;SDS011;7748;52.474;13.454;2022-09-12T05:46:00;8.17;;;5.10;;
15293;SDS011;7748;52.474;13.454;2022-09-12T05:48:30;9.27;;;4.93;;
15293;SDS011;7748;52.474;13.454;2022-09-12T05:50:58;8.70;;;5.40;;
15293;SDS011;7748;52.474;13.454;2022-09-12T05:53:27;11.07;;;5.77;;
15293;SDS011;7748;52.474;13.454;2022-09-12T05:56:03;9.20;;;6.53;;
15293;SDS011;7748;52.474;13.454;2022-09-12T05:58:32;11.53;;;5.87;;
15293;SDS011;7748;52.474;13.454;2022-09-12T06:01:01;8.63;;;5.87;;
15293;SDS011;7748;52.474;13.454;2022-09-12T06:03:34;9.70;;;6.70;;
15293;SDS011;7748;52.474;13.454;2022-09-12T06:06:03;7.73;;;5.70;;
15293;SDS011;7748;52.474;13.454;2022-09-12T06:08:32;10.07;;;5.33;;
15293;SDS011;7748;52.474;13.454;2022-09-12T06:11:01;9.57;;;6.70;;
15293;SDS011;7748;52.474;13.454;2022-09-12T06:13:31;8.47;;;6.17;;
15293;SDS011;7748;52.474;13.454;2022-09-12T06:16:03;10.47;;;5.43;;
15293;SDS011;7748;52.474;13.454;2022-09-12T06:18:31;7.90;;;4.90;;
15293;SDS011;7748;52.474;13.454;2022-09-12T06:21:02;14.93;;;6.03;;
15293;SDS011;7748;52.474;13.454;2022-09-12T06:23:30;7.17;;;5.57;;
15293;SDS011;7748;52.474;13.454;2022-09-12T06:25:58;7.40;;;5.57;;
15293;SDS011;7748;52.474;13.454;2022-09-12T06:28:27;8.20;;;6.00;;
15293;SDS011;7748;52.474;13.454;2022-09-12T06:31:00;12.70;;;6.73;;
15293;SDS011;7748;52.474;13.454;2022-09-12T06:33:30;7.97;;;6.10;;
15293;SDS011;7748;52.474;13.454;2022-09-12T06:36:03;13.97;;;6.80;;
15293;SDS011;7748;52.474;13.454;2022-09-12T06:38:37;10.53;;;6.40;;
15293;SDS011;7748;52.474;13.454;2022-09-12T06:41:06;10.80;;;6.53;;
15293;SDS011;7748;52.474;13.454;2022-09-12T06:43:35;11.73;;;7.07;;
15293;SDS011;7748;52.474;13.454;2022-09-12T06:46:04;13.57;;;7.23;;
15293;SDS011;7748;52.474;13.454;2022-09-12T06:48:32;14.33;;;6.63;;
15293;SDS011;7748;52.474;13.454;2022-09-12T06:51:09;9.87;;;6.33;;
15293;SDS011;7748;52.474;13.454;2022-09-12T06:53:38;12.30;;;6.90;;
15293;SDS011;7748;52.474;13.454;2022-09-12T06:56:08;11.73;;;6.93;;
15293;SDS011;7748;52.474;13.454;2022-09-12T06:58:38;11.57;;;7.67;;
15293;SDS011;7748;52.474;13.454;2022-09-12T07:01:07;11.13;;;6.80;;
15293;SDS011;7748;52.474;13.454;2022-09-12T07:03:36;10.73;;;7.60;;
15293;SDS011;7748;52.474;13.454;2022-09-12T07:06:06;9.63;;;7.33;;
15293;SDS011;7748;52.474;13.454;2022-09-12T07:08:37;18.63;;;8.67;;
15293;SDS011;7748;52.474;13.454;2022-09-12T07:11:10;14.93;;;9.07;;
15293;SDS011;7748;52.474;13.454;2022-09-12T07:13:40;14.67;;;9.43;;
15293;SDS011;7748;52.474;13.454;2022-09-12T07:16:09;13.20;;;9.43;;
15293;SDS011;7748;52.474;13.454;2022-09-12T07:18:48;9.93;;;7.33;;
15293;SDS011;7748;52.474;13.454;2022-09-12T07:21:16;15.87;;;6.60;;
15293;SDS011;7748;52.474;13.454;2022-09-12T07:23:46;8.67;;;6.87;;
15293;SDS011;7748;52.474;13.454;2022-09-12T07:26:14;12.40;;;6.70;;
15293;SDS011;7748;52.474;13.454;2022-09-12T07:28:43;11.10;;;7.07;;
15293;SDS011;7748;52.474;13.454;2022-09-12T07:31:12;8.07;;;5.70;;
15293;SDS011;7748;52.474;13.454;2022-09-12T07:33:41;6.90;;;4.60;;
15293;SDS011;7748;52.474;13.454;2022-09-12T07:36:10;5.97;;;4.30;;
15293;SDS011;7748;52.474;13.454;2022-09-12T07:38:39;4.37;;;3.97;;
15293;SDS011;7748;52.474;13.454;2022-09-12T07:41:12;7.53;;;4.60;;
15293;SDS011;7748;52.474;13.454;2022-09-12T07:43:41;5.63;;;4.80;;
15293;SDS011;7748;52.474;13.454;2022-09-12T07:46:08;7.40;;;4.53;;
15293;SDS011;7748;52.474;13.454;2022-09-12T07:48:37;9.93;;;4.80;;
15293;SDS011;7748;52.474;13.454;2022-09-12T07:51:07;5.27;;;4.00;;
15293;SDS011;7748;52.474;13.454;2022-09-12T07:53:37;4.97;;;3.93;;
15293;SDS011;7748;52.474;13.454;2022-09-12T07:56:06;5.47;;;3.80;;
15293;SDS011;7748;52.474;13.454;2022-09-12T07:58:37;5.17;;;3.50;;
15293;SDS011;7748;52.474;13.454;2022-09-12T08:01:07;5.33;;;3.63;;
15293;SDS011;7748;52.474;13.454;2022-09-12T08:03:36;7.47;;;3.73;;
15293;SDS011;7748;52.474;13.454;2022-09-12T08:06:04;7.47;;;3.50;;
15293;SDS011;7748;52.474;13.454;2022-09-12T08:08:33;7.40;;;3.90;;
15293;SDS011;7748;52.474;13.454;2022-09-12T08:11:02;5.73;;;3.60;;
15293;SDS011;7748;52.474;13.454;2022-09-12T08:13:32;4.17;;;3.77;;
15293;SDS011;7748;52.474;13.454;2022-09-12T08:16:04;6.93;;;4.03;;
15293;SDS011;7748;52.474;13.454;2022-09-12T08:18:33;4.97;;;3.53;;
15293;SDS011;7748;52.474;13.454;2022-09-12T08:21:04;5.27;;;3.53;;
15293;SDS011;7748;52.474;13.454;2022-09-12T08:23:33;4.50;;;3.80;;
15293;SDS011;7748;52.474;13.454;2022-09-12T08:26:01;8.97;;;4.13;;
15293;SDS011;7748;52.474;13.454;2022-09-12T08:28:32;4.97;;;2.80;;
15293;SDS011;7748;52.474;13.454;2022-09-12T08:31:02;4.93;;;2.73;;
15293;SDS011;7748;52.474;13.454;2022-09-12T08:33:32;3.83;;;2.53;;
15293;SDS011;7748;52.474;13.454;2022-09-12T08:36:04;5.43;;;2.97;;
15293;SDS011;7748;52.474;13.454;2022-09-12T08:38:33;6.30;;;2.53;;
15293;SDS011;7748;52.474;13.454;2022-09-12T08:41:03;5.13;;;3.93;;
15293;SDS011;7748;52.474;13.454;2022-09-12T08:43:43;3.97;;;2.80;;
15293;SDS011;7748;52.474;13.454;2022-09-12T08:46:25;3.83;;;3.00;;
15293;SDS011;7748;52.474;13.454;2022-09-12T08:48:59;9.17;;;2.80;;
15293;SDS011;7748;52.474;13.454;2022-09-12T08:51:29;3.23;;;2.40;;
15293;SDS011;7748;52.474;13.454;2022-09-12T08:53:59;3.37;;;2.30;;
15293;SDS011;7748;52.474;13.454;2022-09-12T08:56:31;3.57;;;2.50;;
15293;SDS011;7748;52.474;13.454;2022-09-12T08:59:03;3.03;;;2.77;;
15293;SDS011;7748;52.474;13.454;2022-09-12T09:01:34;3.97;;;2.87;;
15293;SDS011;7748;52.474;13.454;2022-09-12T09:04:11;3.17;;;2.50;;
15293;SDS011;7748;52.474;13.454;2022-09-12T09:07:00;4.23;;;2.43;;
15293;SDS011;7748;52.474;13.454;2022-09-12T09:09:51;4.33;;;2.90;;
15293;SDS011;7748;52.474;13.454;2022-09-12T09:12:35;5.37;;;3.10;;
15293;SDS011;7748;52.474;13.454;2022-09-12T09:15:16;3.10;;;2.60;;
15293;SDS011;7748;52.474;13.454;2022-09-12T09:18:04;4.37;;;2.07;;
15293;SDS011;7748;52.474;13.454;2022-09-12T09:20:39;2.53;;;1.90;;
15293;SDS011;7748;52.474;13.454;2022-09-12T09:23:12;3.37;;;1.77;;
15293;SDS011;7748;52.474;13.454;2022-09-12T09:25:47;4.27;;;2.03;;
15293;SDS011;7748;52.474;13.454;2022-09-12T09:28:22;5.33;;;2.47;;
15293;SDS011;7748;52.474;13.454;2022-09-12T09:30:57;4.13;;;2.57;;
15293;SDS011;7748;52.474;13.454;2022-09-12T09:33:27;3.43;;;2.50;;
15293;SDS011;7748;52.474;13.454;2022-09-12T09:36:01;2.97;;;2.40;;
15293;SDS011;7748;52.474;13.454;2022-09-12T09:38:38;2.83;;;2.40;;
15293;SDS011;7748;52.474;13.454;2022-09-12T09:41:29;3.43;;;1.90;;
15293;SDS011;7748;52.474;13.454;2022-09-12T09:44:07;2.93;;;2.07;;
15293;SDS011;7748;52.474;13.454;2022-09-12T09:46:36;3.47;;;1.90;;
15293;SDS011;7748;52.474;13.454;2022-09-12T09:49:05;3.97;;;2.10;;
15293;SDS011;7748;52.474;13.454;2022-09-12T09:51:37;3.13;;;2.40;;
15293;SDS011;7748;52.474;13.454;2022-09-12T09:54:09;3.27;;;2.10;;
15293;SDS011;7748;52.474;13.454;2022-09-12T09:56:43;4.00;;;2.30;;
15293;SDS011;7748;52.474;13.454;2022-09-12T09:59:14;7.23;;;2.33;;
15293;SDS011;7748;52.474;13.454;2022-09-12T10:01:43;2.57;;;1.93;;
15293;SDS011;7748;52.474;13.454;2022-09-12T10:04:17;2.80;;;2.00;;
15293;SDS011;7748;52.474;13.454;2022-09-12T10:06:49;2.60;;;1.70;;
15293;SDS011;7748;52.474;13.454;2022-09-12T10:09:20;3.23;;;2.10;;
15293;SDS011;7748;52.474;13.454;2022-09-12T10:11:50;3.93;;;2.10;;
15293;SDS011;7748;52.474;13.454;2022-09-12T10:14:27;1.90;;;1.70;;
15293;SDS011;7748;52.474;13.454;2022-09-12T10:17:02;2.27;;;1.90;;
15293;SDS011;7748;52.474;13.454;2022-09-12T10:19:50;3.27;;;2.13;;
15293;SDS011;7748;52.474;13.454;2022-09-12T10:22:39;3.27;;;2.00;;
15293;SDS011;7748;52.474;13.454;2022-09-12T10:25:09;3.87;;;2.77;;
15293;SDS011;7748;52.474;13.454;2022-09-12T10:27:38;4.50;;;3.33;;
15293;SDS011;7748;52.474;13.454;2022-09-12T10:30:14;2.90;;;1.80;;
15293;SDS011;7748;52.474;13.454;2022-09-12T10:32:44;3.00;;;2.50;;
15293;SDS011;7748;52.474;13.454;2022-09-12T10:35:17;2.00;;;1.80;;
15293;SDS011;7748;52.474;13.454;2022-09-12T10:37:51;3.30;;;1.63;;
15293;SDS011;7748;52.474;13.454;2022-09-12T10:40:22;1.73;;;1.50;;
15293;SDS011;7748;52.474;13.454;2022-09-12T10:42:52;6.40;;;1.70;;
15293;SDS011;7748;52.474;13.454;2022-09-12T10:45:24;1.57;;;1.47;;
15293;SDS011;7748;52.474;13.454;2022-09-12T10:47:55;2.37;;;1.80;;
15293;SDS011;7748;52.474;13.454;2022-09-12T10:50:34;3.83;;;1.90;;
15293;SDS011;7748;52.474;13.454;2022-09-12T10:53:12;2.87;;;2.20;;
15293;SDS011;7748;52.474;13.454;2022-09-12T10:55:49;7.57;;;4.57;;
15293;SDS011;7748;52.474;13.454;2022-09-12T10:58:35;7.13;;;3.10;;
15293;SDS011;7748;52.474;13.454;2022-09-12T11:01:17;6.07;;;2.03;;
15293;SDS011;7748;52.474;13.454;2022-09-12T11:04:13;2.10;;;1.60;;
15293;SDS011;7748;52.474;13.454;2022-09-12T11:06:52;4.27;;;2.20;;
15293;SDS011;7748;52.474;13.454;2022-09-12T11:09:33;4.40;;;2.00;;
15293;SDS011;7748;52.474;13.454;2022-09-12T11:12:10;1.97;;;1.77;;
15293;SDS011;7748;52.474;13.454;2022-09-12T11:14:51;2.77;;;1.60;;
15293;SDS011;7748;52.474;13.454;2022-09-12T11:17:29;4.07;;;2.00;;
15293;SDS011;7748;52.474;13.454;2022-09-12T11:20:18;7.37;;;1.80;;
15293;SDS011;7748;52.474;13.454;2022-09-12T11:23:10;2.20;;;1.77;;
15293;SDS011;7748;52.474;13.454;2022-09-12T11:25:56;3.67;;;1.83;;
15293;SDS011;7748;52.474;13.454;2022-09-12T11:28:32;2.90;;;2.00;;
15293;SDS011;7748;52.474;13.454;2022-09-12T11:31:43;4.13;;;2.07;;
15293;SDS011;7748;52.474;13.454;2022-09-12T11:34:27;12.97;;;7.10;;
15293;SDS011;7748;52.474;13.454;2022-09-12T11:37:07;4.10;;;2.90;;
15293;SDS011;7748;52.474;13.454;2022-09-12T11:39:49;1.60;;;1.50;;
15293;SDS011;7748;52.474;13.454;2022-09-12T11:42:22;4.27;;;1.47;;
15293;SDS011;7748;52.474;13.454;2022-09-12T11:44:56;1.73;;;1.47;;
15293;SDS011;7748;52.474;13.454;2022-09-12T11:47:29;2.97;;;1.60;;
15293;SDS011;7748;52.474;13.454;2022-09-12T11:50:02;2.63;;;2.13;;
15293;SDS011;7748;52.474;13.454;2022-09-12T11:52:41;3.77;;;2.03;;
15293;SDS011;7748;52.474;13.454;2022-09-12T11:55:14;4.03;;;2.10;;
15293;SDS011;7748;52.474;13.454;2022-09-12T11:57:46;2.00;;;1.50;;
15293;SDS011;7748;52.474;13.454;2022-09-12T12:00:20;1.53;;;1.40;;
15293;SDS011;7748;52.474;13.454;2022-09-12T12:02:50;4.50;;;2.33;;
15293;SDS011;7748;52.474;13.454;2022-09-12T12:05:27;1.90;;;1.40;;
15293;SDS011;7748;52.474;13.454;2022-09-12T12:07:58;1.63;;;1.40;;
15293;SDS011;7748;52.474;13.454;2022-09-12T12:10:30;4.03;;;2.90;;
15293;SDS011;7748;52.474;13.454;2022-09-12T12:13:03;8.87;;;5.90;;
15293;SDS011;7748;52.474;13.454;2022-09-12T12:15:39;4.30;;;2.27;;
15293;SDS011;7748;52.474;13.454;2022-09-12T12:18:14;1.87;;;1.63;;
15293;SDS011;7748;52.474;13.454;2022-09-12T12:20:45;1.50;;;1.40;;
15293;SDS011;7748;52.474;13.454;2022-09-12T12:23:23;1.57;;;1.40;;
15293;SDS011;7748;52.474;13.454;2022-09-12T12:25:55;2.30;;;1.60;;
15293;SDS011;7748;52.474;13.454;2022-09-12T12:31:26;2.30;;;1.70;;
15293;SDS011;7748;52.474;13.454;2022-09-12T12:36:53;1.87;;;1.63;;
15293;SDS011;7748;52.474;13.454;2022-09-12T12:46:00;2.10;;;1.90;;
15293;SDS011;7748;52.474;13.454;2022-09-12T12:48:31;3.03;;;1.67;;
15293;SDS011;7748;52.474;13.454;2022-09-12T12:51:15;6.17;;;2.53;;
15293;SDS011;7748;52.474;13.454;2022-09-12T12:53:54;3.47;;;2.43;;
15293;SDS011;7748;52.474;13.454;2022-09-12T12:56:26;5.60;;;2.50;;
15293;SDS011;7748;52.474;13.454;2022-09-12T12:59:11;3.77;;;1.90;;
15293;SDS011;7748;52.474;13.454;2022-09-12T13:01:48;7.73;;;2.30;;
15293;SDS011;7748;52.474;13.454;2022-09-12T13:04:21;3.27;;;2.53;;
15293;SDS011;7748;52.474;13.454;2022-09-12T13:06:57;2.13;;;1.93;;
15293;SDS011;7748;52.474;13.454;2022-09-12T13:09:36;2.87;;;1.40;;
15293;SDS011;7748;52.474;13.454;2022-09-12T13:12:17;2.07;;;1.30;;
15293;SDS011;7748;52.474;13.454;2022-09-12T13:14:48;1.80;;;1.37;;
15293;SDS011;7748;52.474;13.454;2022-09-12T13:17:24;1.33;;;1.13;;
15293;SDS011;7748;52.474;13.454;2022-09-12T13:20:01;2.30;;;1.70;;
15293;SDS011;7748;52.474;13.454;2022-09-12T13:22:59;7.37;;;4.90;;
15293;SDS011;7748;52.474;13.454;2022-09-12T13:25:28;2.53;;;1.70;;
15293;SDS011;7748;52.474;13.454;2022-09-12T13:28:14;2.47;;;2.20;;
15293;SDS011;7748;52.474;13.454;2022-09-12T13:30:44;1.93;;;1.80;;
15293;SDS011;7748;52.474;13.454;2022-09-12T13:33:19;2.20;;;2.00;;
15293;SDS011;7748;52.474;13.454;2022-09-12T13:35:58;1.90;;;1.60;;
15293;SDS011;7748;52.474;13.454;2022-09-12T13:38:36;7.20;;;3.10;;
15293;SDS011;7748;52.474;13.454;2022-09-12T13:41:19;1.50;;;1.40;;
15293;SDS011;7748;52.474;13.454;2022-09-12T13:44:00;2.37;;;1.17;;
15293;SDS011;7748;52.474;13.454;2022-09-12T13:46:30;2.07;;;1.57;;
15293;SDS011;7748;52.474;13.454;2022-09-12T13:49:06;1.33;;;1.23;;
15293;SDS011;7748;52.474;13.454;2022-09-12T13:51:44;4.57;;;2.00;;
15293;SDS011;7748;52.474;13.454;2022-09-12T13:54:14;4.80;;;2.60;;
15293;SDS011;7748;52.474;13.454;2022-09-12T13:56:49;1.70;;;1.60;;
15293;SDS011;7748;52.474;13.454;2022-09-12T13:59:17;1.60;;;1.50;;
15293;SDS011;7748;52.474;13.454;2022-09-12T14:01:45;4.60;;;3.70;;
15293;SDS011;7748;52.474;13.454;2022-09-12T14:04:16;4.17;;;2.37;;
15293;SDS011;7748;52.474;13.454;2022-09-12T14:07:08;3.37;;;2.53;;
15293;SDS011;7748;52.474;13.454;2022-09-12T14:09:41;1.97;;;1.63;;
15293;SDS011;7748;52.474;13.454;2022-09-12T14:12:16;5.07;;;3.00;;
15293;SDS011;7748;52.474;13.454;2022-09-12T14:14:50;2.70;;;2.10;;
15293;SDS011;7748;52.474;13.454;2022-09-12T14:17:22;3.97;;;2.10;;
15293;SDS011;7748;52.474;13.454;2022-09-12T14:19:56;3.87;;;1.87;;
15293;SDS011;7748;52.474;13.454;2022-09-12T14:22:28;2.00;;;1.80;;
15293;SDS011;7748;52.474;13.454;2022-09-12T14:24:57;2.20;;;2.00;;
15293;SDS011;7748;52.474;13.454;2022-09-12T14:27:26;2.30;;;1.90;;
15293;SDS011;7748;52.474;13.454;2022-09-12T14:30:00;2.87;;;2.30;;
15293;SDS011;7748;52.474;13.454;2022-09-12T14:32:32;2.20;;;1.67;;
15293;SDS011;7748;52.474;13.454;2022-09-12T14:35:05;1.97;;;1.40;;
15293;SDS011;7748;52.474;13.454;2022-09-12T14:37:44;2.20;;;1.60;;
15293;SDS011;7748;52.474;13.454;2022-09-12T14:40:17;5.33;;;2.40;;
15293;SDS011;7748;52.474;13.454;2022-09-12T14:42:48;2.63;;;2.13;;
15293;SDS011;7748;52.474;13.454;2022-09-12T14:45:27;4.60;;;2.70;;
15293;SDS011;7748;52.474;13.454;2022-09-12T14:47:57;3.73;;;2.30;;
15293;SDS011;7748;52.474;13.454;2022-09-12T14:50:27;2.30;;;1.73;;
15293;SDS011;7748;52.474;13.454;2022-09-12T14:53:02;2.80;;;1.90;;
15293;SDS011;7748;52.474;13.454;2022-09-12T14:55:31;4.67;;;2.67;;
15293;SDS011;7748;52.474;13.454;2022-09-12T14:58:08;2.43;;;1.60;;
15293;SDS011;7748;52.474;13.454;2022-09-12T15:00:56;2.47;;;1.93;;
15293;SDS011;7748;52.474;13.454;2022-09-12T15:03:26;3.07;;;1.83;;
15293;SDS011;7748;52.474;13.454;2022-09-12T15:05:58;2.27;;;1.60;;
15293;SDS011;7748;52.474;13.454;2022-09-12T15:08:29;3.80;;;2.40;;
15293;SDS011;7748;52.474;13.454;2022-09-12T15:10:58;2.47;;;2.03;;
15293;SDS011;7748;52.474;13.454;2022-09-12T15:13:26;3.57;;;2.90;;
15293;SDS011;7748;52.474;13.454;2022-09-12T15:15:56;5.33;;;3.03;;
15293;SDS011;7748;52.474;13.454;2022-09-12T15:18:25;3.70;;;2.30;;
15293;SDS011;7748;52.474;13.454;2022-09-12T15:20:55;6.83;;;3.40;;
15293;SDS011;7748;52.474;13.454;2022-09-12T15:23:29;3.73;;;2.70;;
15293;SDS011;7748;52.474;13.454;2022-09-12T15:26:01;3.70;;;1.90;;
15293;SDS011;7748;52.474;13.454;2022-09-12T15:28:29;1.67;;;1.57;;
15293;SDS011;7748;52.474;13.454;2022-09-12T15:30:59;1.70;;;1.60;;
15293;SDS011;7748;52.474;13.454;2022-09-12T15:33:32;2.13;;;1.63;;